sensor_id;sensor_type;location;lat;lon;timestamp;P1;durP1;ratioP1;P2;durP2;ratioP2
65855;SDS011;52631;42.208;24.656;2023-06-24T00:01:29;12.45;;;9.10;;
65855;SDS011;52631;42.208;24.656;2023-06-24T00:03:56;12.15;;;8.90;;
65855;SDS011;52631;42.208;24.656;2023-06-24T00:06:22;13.27;;;9.57;;
65855;SDS011;52631;42.208;24.656;2023-06-24T00:08:51;10.98;;;8.65;;
65855;SDS011;52631;42.208;24.656;2023-06-24T00:11:17;11.98;;;8.90;;
65855;SDS011;52631;42.208;24.656;2023-06-24T00:13:43;11.35;;;9.18;;
65855;SDS011;52631;42.208;24.656;2023-06-24T00:16:09;13.15;;;8.68;;
65855;SDS011;52631;42.208;24.656;2023-06-24T00:18:35;11.85;;;9.10;;
65855;SDS011;52631;42.208;24.656;2023-06-24T00:21:02;11.45;;;8.73;;
65855;SDS011;52631;42.208;24.656;2023-06-24T00:23:28;11.15;;;8.10;;
65855;SDS011;52631;42.208;24.656;2023-06-24T00:25:55;13.80;;;8.63;;
65855;SDS011;52631;42.208;24.656;2023-06-24T00:28:21;13.07;;;8.77;;
65855;SDS011;52631;42.208;24.656;2023-06-24T00:30:47;14.52;;;9.30;;
65855;SDS011;52631;42.208;24.656;2023-06-24T00:33:13;12.60;;;9.15;;
65855;SDS011;52631;42.208;24.656;2023-06-24T00:35:42;10.40;;;8.07;;
65855;SDS011;52631;42.208;24.656;2023-06-24T00:38:08;12.25;;;8.90;;
65855;SDS011;52631;42.208;24.656;2023-06-24T00:40:34;11.25;;;8.40;;
65855;SDS011;52631;42.208;24.656;2023-06-24T00:42:59;10.68;;;8.30;;
65855;SDS011;52631;42.208;24.656;2023-06-24T00:45:26;11.05;;;7.75;;
65855;SDS011;52631;42.208;24.656;2023-06-24T00:47:52;10.23;;;8.07;;
65855;SDS011;52631;42.208;24.656;2023-06-24T00:50:19;14.35;;;9.45;;
65855;SDS011;52631;42.208;24.656;2023-06-24T00:52:45;12.25;;;8.30;;
65855;SDS011;52631;42.208;24.656;2023-06-24T00:55:11;11.27;;;7.78;;
65855;SDS011;52631;42.208;24.656;2023-06-24T00:57:43;12.70;;;8.07;;
65855;SDS011;52631;42.208;24.656;2023-06-24T01:00:10;10.98;;;8.18;;
65855;SDS011;52631;42.208;24.656;2023-06-24T01:02:41;10.18;;;7.65;;
65855;SDS011;52631;42.208;24.656;2023-06-24T01:05:07;11.07;;;7.95;;
65855;SDS011;52631;42.208;24.656;2023-06-24T01:07:33;10.07;;;7.43;;
65855;SDS011;52631;42.208;24.656;2023-06-24T01:10:01;10.70;;;7.72;;
65855;SDS011;52631;42.208;24.656;2023-06-24T01:12:31;11.05;;;7.90;;
65855;SDS011;52631;42.208;24.656;2023-06-24T01:15:02;11.80;;;7.32;;
65855;SDS011;52631;42.208;24.656;2023-06-24T01:17:35;11.93;;;7.40;;
65855;SDS011;52631;42.208;24.656;2023-06-24T01:21:10;10.63;;;7.45;;
65855;SDS011;52631;42.208;24.656;2023-06-24T01:28:34;10.98;;;7.07;;
65855;SDS011;52631;42.208;24.656;2023-06-24T01:31:31;8.50;;;6.20;;
65855;SDS011;52631;42.208;24.656;2023-06-24T01:37:35;8.65;;;5.75;;
65855;SDS011;52631;42.208;24.656;2023-06-24T01:39:47;9.75;;;5.93;;
65855;SDS011;52631;42.208;24.656;2023-06-24T01:42:17;10.70;;;6.18;;
65855;SDS011;52631;42.208;24.656;2023-06-24T01:44:45;10.75;;;6.60;;
65855;SDS011;52631;42.208;24.656;2023-06-24T01:47:12;10.93;;;6.65;;
65855;SDS011;52631;42.208;24.656;2023-06-24T01:49:41;9.38;;;6.78;;
65855;SDS011;52631;42.208;24.656;2023-06-24T01:52:07;10.88;;;6.70;;
65855;SDS011;52631;42.208;24.656;2023-06-24T01:54:34;8.95;;;6.55;;
65855;SDS011;52631;42.208;24.656;2023-06-24T01:57:00;9.77;;;7.07;;
65855;SDS011;52631;42.208;24.656;2023-06-24T01:59:28;9.65;;;6.85;;
65855;SDS011;52631;42.208;24.656;2023-06-24T02:01:54;9.30;;;6.70;;
65855;SDS011;52631;42.208;24.656;2023-06-24T02:04:20;9.93;;;7.03;;
65855;SDS011;52631;42.208;24.656;2023-06-24T02:06:46;12.80;;;7.28;;
65855;SDS011;52631;42.208;24.656;2023-06-24T02:09:12;10.00;;;7.47;;
65855;SDS011;52631;42.208;24.656;2023-06-24T02:11:38;11.43;;;7.53;;
65855;SDS011;52631;42.208;24.656;2023-06-24T02:14:05;12.93;;;7.93;;
65855;SDS011;52631;42.208;24.656;2023-06-24T02:16:32;10.57;;;6.90;;
65855;SDS011;52631;42.208;24.656;2023-06-24T02:18:58;9.77;;;7.13;;
65855;SDS011;52631;42.208;24.656;2023-06-24T02:21:24;9.90;;;6.95;;
65855;SDS011;52631;42.208;24.656;2023-06-24T02:23:51;11.73;;;7.32;;
65855;SDS011;52631;42.208;24.656;2023-06-24T02:26:16;10.23;;;7.18;;
65855;SDS011;52631;42.208;24.656;2023-06-24T02:28:43;12.18;;;7.40;;
65855;SDS011;52631;42.208;24.656;2023-06-24T02:31:11;10.80;;;7.45;;
65855;SDS011;52631;42.208;24.656;2023-06-24T02:33:37;11.65;;;7.40;;
65855;SDS011;52631;42.208;24.656;2023-06-24T02:36:03;10.95;;;7.15;;
65855;SDS011;52631;42.208;24.656;2023-06-24T02:38:28;13.02;;;7.40;;
65855;SDS011;52631;42.208;24.656;2023-06-24T02:40:54;11.63;;;7.38;;
65855;SDS011;52631;42.208;24.656;2023-06-24T02:43:19;13.95;;;7.57;;
65855;SDS011;52631;42.208;24.656;2023-06-24T02:45:45;11.93;;;7.65;;
65855;SDS011;52631;42.208;24.656;2023-06-24T02:48:11;11.52;;;7.43;;
65855;SDS011;52631;42.208;24.656;2023-06-24T02:50:38;11.02;;;7.22;;
65855;SDS011;52631;42.208;24.656;2023-06-24T02:53:05;11.32;;;7.90;;
65855;SDS011;52631;42.208;24.656;2023-06-24T02:55:32;15.38;;;8.13;;
65855;SDS011;52631;42.208;24.656;2023-06-24T02:57:58;12.18;;;7.18;;
65855;SDS011;52631;42.208;24.656;2023-06-24T03:00:26;12.73;;;7.82;;
65855;SDS011;52631;42.208;24.656;2023-06-24T03:02:52;12.95;;;7.65;;
65855;SDS011;52631;42.208;24.656;2023-06-24T03:05:17;11.35;;;7.57;;
65855;SDS011;52631;42.208;24.656;2023-06-24T03:07:43;10.77;;;7.50;;
65855;SDS011;52631;42.208;24.656;2023-06-24T03:10:09;12.20;;;8.10;;
65855;SDS011;52631;42.208;24.656;2023-06-24T03:12:35;10.48;;;7.40;;
65855;SDS011;52631;42.208;24.656;2023-06-24T03:15:01;10.75;;;7.40;;
65855;SDS011;52631;42.208;24.656;2023-06-24T03:17:27;13.77;;;7.57;;
65855;SDS011;52631;42.208;24.656;2023-06-24T03:19:52;11.73;;;7.55;;
65855;SDS011;52631;42.208;24.656;2023-06-24T03:22:17;11.27;;;6.80;;
65855;SDS011;52631;42.208;24.656;2023-06-24T03:24:43;11.82;;;6.97;;
65855;SDS011;52631;42.208;24.656;2023-06-24T03:27:09;10.27;;;7.32;;
65855;SDS011;52631;42.208;24.656;2023-06-24T03:29:34;12.80;;;7.88;;
65855;SDS011;52631;42.208;24.656;2023-06-24T03:32:00;13.10;;;7.35;;
65855;SDS011;52631;42.208;24.656;2023-06-24T03:34:25;12.80;;;7.47;;
65855;SDS011;52631;42.208;24.656;2023-06-24T03:36:52;13.02;;;8.55;;
65855;SDS011;52631;42.208;24.656;2023-06-24T03:39:19;13.73;;;8.00;;
65855;SDS011;52631;42.208;24.656;2023-06-24T03:41:45;14.40;;;7.68;;
65855;SDS011;52631;42.208;24.656;2023-06-24T03:44:11;12.73;;;7.53;;
65855;SDS011;52631;42.208;24.656;2023-06-24T03:46:36;12.23;;;7.40;;
65855;SDS011;52631;42.208;24.656;2023-06-24T03:49:02;11.57;;;7.32;;
65855;SDS011;52631;42.208;24.656;2023-06-24T03:51:27;13.98;;;7.28;;
65855;SDS011;52631;42.208;24.656;2023-06-24T03:53:53;10.65;;;7.80;;
65855;SDS011;52631;42.208;24.656;2023-06-24T03:56:19;11.15;;;7.28;;
65855;SDS011;52631;42.208;24.656;2023-06-24T03:58:44;14.05;;;7.28;;
65855;SDS011;52631;42.208;24.656;2023-06-24T04:01:10;11.15;;;7.80;;
65855;SDS011;52631;42.208;24.656;2023-06-24T04:03:35;15.00;;;8.30;;
65855;SDS011;52631;42.208;24.656;2023-06-24T04:06:01;10.65;;;7.65;;
65855;SDS011;52631;42.208;24.656;2023-06-24T04:08:27;10.88;;;7.55;;
65855;SDS011;52631;42.208;24.656;2023-06-24T04:10:55;14.05;;;8.27;;
65855;SDS011;52631;42.208;24.656;2023-06-24T04:13:22;12.85;;;7.22;;
65855;SDS011;52631;42.208;24.656;2023-06-24T04:15:47;14.57;;;8.10;;
65855;SDS011;52631;42.208;24.656;2023-06-24T04:18:13;12.73;;;7.88;;
65855;SDS011;52631;42.208;24.656;2023-06-24T04:20:38;12.48;;;8.02;;
65855;SDS011;52631;42.208;24.656;2023-06-24T04:23:04;11.07;;;7.20;;
65855;SDS011;52631;42.208;24.656;2023-06-24T04:25:34;10.68;;;7.47;;
65855;SDS011;52631;42.208;24.656;2023-06-24T04:28:00;10.60;;;7.22;;
65855;SDS011;52631;42.208;24.656;2023-06-24T04:30:26;11.00;;;7.35;;
65855;SDS011;52631;42.208;24.656;2023-06-24T04:32:51;16.40;;;8.00;;
65855;SDS011;52631;42.208;24.656;2023-06-24T04:35:17;12.40;;;7.55;;
65855;SDS011;52631;42.208;24.656;2023-06-24T04:37:42;10.82;;;7.00;;
65855;SDS011;52631;42.208;24.656;2023-06-24T04:40:08;10.93;;;6.65;;
65855;SDS011;52631;42.208;24.656;2023-06-24T04:42:34;10.05;;;6.85;;
65855;SDS011;52631;42.208;24.656;2023-06-24T04:45:00;10.65;;;6.95;;
65855;SDS011;52631;42.208;24.656;2023-06-24T04:47:26;11.48;;;7.20;;
65855;SDS011;52631;42.208;24.656;2023-06-24T04:49:52;9.15;;;6.55;;
65855;SDS011;52631;42.208;24.656;2023-06-24T04:52:17;10.63;;;6.78;;
65855;SDS011;52631;42.208;24.656;2023-06-24T04:54:43;13.38;;;7.05;;
65855;SDS011;52631;42.208;24.656;2023-06-24T04:57:09;11.57;;;7.22;;
65855;SDS011;52631;42.208;24.656;2023-06-24T04:59:34;11.55;;;6.47;;
65855;SDS011;52631;42.208;24.656;2023-06-24T05:02:01;9.10;;;6.50;;
65855;SDS011;52631;42.208;24.656;2023-06-24T05:04:26;10.63;;;7.25;;
65855;SDS011;52631;42.208;24.656;2023-06-24T05:06:52;9.05;;;6.60;;
65855;SDS011;52631;42.208;24.656;2023-06-24T05:09:17;9.82;;;6.28;;
65855;SDS011;52631;42.208;24.656;2023-06-24T05:11:43;9.85;;;6.43;;
65855;SDS011;52631;42.208;24.656;2023-06-24T05:14:09;10.75;;;6.70;;
65855;SDS011;52631;42.208;24.656;2023-06-24T05:16:35;8.80;;;6.05;;
65855;SDS011;52631;42.208;24.656;2023-06-24T05:19:00;11.45;;;6.88;;
65855;SDS011;52631;42.208;24.656;2023-06-24T05:21:26;10.88;;;6.80;;
65855;SDS011;52631;42.208;24.656;2023-06-24T05:23:51;15.98;;;8.70;;
65855;SDS011;52631;42.208;24.656;2023-06-24T05:26:17;10.77;;;6.43;;
65855;SDS011;52631;42.208;24.656;2023-06-24T05:28:42;9.30;;;6.35;;
65855;SDS011;52631;42.208;24.656;2023-06-24T05:31:08;8.35;;;6.10;;
65855;SDS011;52631;42.208;24.656;2023-06-24T05:33:33;9.57;;;6.30;;
65855;SDS011;52631;42.208;24.656;2023-06-24T05:35:58;9.18;;;5.40;;
65855;SDS011;52631;42.208;24.656;2023-06-24T05:38:24;7.50;;;5.80;;
65855;SDS011;52631;42.208;24.656;2023-06-24T05:40:49;10.63;;;6.18;;
65855;SDS011;52631;42.208;24.656;2023-06-24T05:43:15;9.25;;;6.53;;
65855;SDS011;52631;42.208;24.656;2023-06-24T05:45:40;8.50;;;6.07;;
65855;SDS011;52631;42.208;24.656;2023-06-24T05:48:06;9.77;;;6.13;;
65855;SDS011;52631;42.208;24.656;2023-06-24T05:50:31;8.93;;;5.82;;
65855;SDS011;52631;42.208;24.656;2023-06-24T05:52:57;9.18;;;6.13;;
65855;SDS011;52631;42.208;24.656;2023-06-24T05:55:23;8.95;;;6.47;;
65855;SDS011;52631;42.208;24.656;2023-06-24T05:57:48;13.38;;;5.88;;
65855;SDS011;52631;42.208;24.656;2023-06-24T06:00:14;12.60;;;6.20;;
65855;SDS011;52631;42.208;24.656;2023-06-24T06:02:40;9.68;;;5.72;;
65855;SDS011;52631;42.208;24.656;2023-06-24T06:05:05;8.75;;;5.60;;
65855;SDS011;52631;42.208;24.656;2023-06-24T06:07:31;11.82;;;5.93;;
65855;SDS011;52631;42.208;24.656;2023-06-24T06:09:56;8.98;;;6.22;;
65855;SDS011;52631;42.208;24.656;2023-06-24T06:12:21;10.45;;;6.40;;
65855;SDS011;52631;42.208;24.656;2023-06-24T06:14:47;12.15;;;6.80;;
65855;SDS011;52631;42.208;24.656;2023-06-24T06:17:13;9.93;;;6.28;;
65855;SDS011;52631;42.208;24.656;2023-06-24T06:19:39;8.38;;;5.63;;
65855;SDS011;52631;42.208;24.656;2023-06-24T06:22:06;10.77;;;5.95;;
65855;SDS011;52631;42.208;24.656;2023-06-24T06:24:32;13.38;;;6.95;;
65855;SDS011;52631;42.208;24.656;2023-06-24T06:26:58;8.60;;;5.88;;
65855;SDS011;52631;42.208;24.656;2023-06-24T06:29:24;8.02;;;5.38;;
65855;SDS011;52631;42.208;24.656;2023-06-24T06:31:49;9.80;;;6.28;;
65855;SDS011;52631;42.208;24.656;2023-06-24T06:34:15;9.95;;;6.40;;
65855;SDS011;52631;42.208;24.656;2023-06-24T06:36:40;9.05;;;5.93;;
65855;SDS011;52631;42.208;24.656;2023-06-24T06:39:06;8.93;;;5.85;;
65855;SDS011;52631;42.208;24.656;2023-06-24T06:41:31;9.55;;;6.05;;
65855;SDS011;52631;42.208;24.656;2023-06-24T06:43:57;8.13;;;5.78;;
65855;SDS011;52631;42.208;24.656;2023-06-24T06:46:22;8.27;;;5.90;;
65855;SDS011;52631;42.208;24.656;2023-06-24T06:48:48;10.10;;;6.35;;
65855;SDS011;52631;42.208;24.656;2023-06-24T06:51:13;8.48;;;6.18;;
65855;SDS011;52631;42.208;24.656;2023-06-24T06:53:39;9.50;;;6.53;;
65855;SDS011;52631;42.208;24.656;2023-06-24T06:56:04;12.27;;;6.45;;
65855;SDS011;52631;42.208;24.656;2023-06-24T06:58:30;15.07;;;7.35;;
65855;SDS011;52631;42.208;24.656;2023-06-24T07:00:55;12.18;;;6.43;;
65855;SDS011;52631;42.208;24.656;2023-06-24T07:03:26;8.70;;;6.15;;
65855;SDS011;52631;42.208;24.656;2023-06-24T07:05:52;7.40;;;5.57;;
65855;SDS011;52631;42.208;24.656;2023-06-24T07:08:18;8.80;;;6.05;;
65855;SDS011;52631;42.208;24.656;2023-06-24T07:10:43;11.82;;;6.03;;
65855;SDS011;52631;42.208;24.656;2023-06-24T07:13:09;10.82;;;6.25;;
65855;SDS011;52631;42.208;24.656;2023-06-24T07:15:35;10.20;;;5.90;;
65855;SDS011;52631;42.208;24.656;2023-06-24T07:18:00;7.75;;;5.85;;
65855;SDS011;52631;42.208;24.656;2023-06-24T07:20:26;9.88;;;6.35;;
65855;SDS011;52631;42.208;24.656;2023-06-24T07:22:51;15.45;;;6.40;;
65855;SDS011;52631;42.208;24.656;2023-06-24T07:25:17;8.45;;;6.13;;
65855;SDS011;52631;42.208;24.656;2023-06-24T07:27:42;9.10;;;6.13;;
65855;SDS011;52631;42.208;24.656;2023-06-24T07:30:08;10.05;;;6.32;;
65855;SDS011;52631;42.208;24.656;2023-06-24T07:32:34;11.30;;;6.20;;
65855;SDS011;52631;42.208;24.656;2023-06-24T07:34:59;7.85;;;5.82;;
65855;SDS011;52631;42.208;24.656;2023-06-24T07:37:24;9.45;;;6.28;;
65855;SDS011;52631;42.208;24.656;2023-06-24T07:39:50;9.18;;;6.18;;
65855;SDS011;52631;42.208;24.656;2023-06-24T07:42:16;11.70;;;6.10;;
65855;SDS011;52631;42.208;24.656;2023-06-24T07:44:47;7.70;;;5.65;;
65855;SDS011;52631;42.208;24.656;2023-06-24T07:47:12;10.48;;;6.07;;
65855;SDS011;52631;42.208;24.656;2023-06-24T07:49:38;8.80;;;5.38;;
65855;SDS011;52631;42.208;24.656;2023-06-24T07:52:03;7.55;;;5.20;;
65855;SDS011;52631;42.208;24.656;2023-06-24T07:54:29;10.10;;;6.15;;
65855;SDS011;52631;42.208;24.656;2023-06-24T07:56:55;8.95;;;6.72;;
65855;SDS011;52631;42.208;24.656;2023-06-24T07:59:21;9.93;;;6.90;;
65855;SDS011;52631;42.208;24.656;2023-06-24T08:01:46;8.88;;;6.90;;
65855;SDS011;52631;42.208;24.656;2023-06-24T08:04:13;9.13;;;7.00;;
65855;SDS011;52631;42.208;24.656;2023-06-24T08:06:39;8.40;;;5.40;;
65855;SDS011;52631;42.208;24.656;2023-06-24T08:09:05;8.38;;;5.55;;
65855;SDS011;52631;42.208;24.656;2023-06-24T08:11:30;9.38;;;5.65;;
65855;SDS011;52631;42.208;24.656;2023-06-24T08:13:56;9.73;;;6.38;;
65855;SDS011;52631;42.208;24.656;2023-06-24T08:16:21;7.68;;;5.68;;
65855;SDS011;52631;42.208;24.656;2023-06-24T08:18:48;8.75;;;5.50;;
65855;SDS011;52631;42.208;24.656;2023-06-24T08:21:13;7.13;;;5.15;;
65855;SDS011;52631;42.208;24.656;2023-06-24T08:23:39;8.65;;;6.30;;
65855;SDS011;52631;42.208;24.656;2023-06-24T08:26:05;8.65;;;5.72;;
65855;SDS011;52631;42.208;24.656;2023-06-24T08:28:32;8.32;;;5.35;;
65855;SDS011;52631;42.208;24.656;2023-06-24T08:30:57;8.43;;;5.68;;
65855;SDS011;52631;42.208;24.656;2023-06-24T08:33:23;9.57;;;5.65;;
65855;SDS011;52631;42.208;24.656;2023-06-24T08:35:48;7.53;;;5.57;;
65855;SDS011;52631;42.208;24.656;2023-06-24T08:38:14;9.35;;;5.93;;
65855;SDS011;52631;42.208;24.656;2023-06-24T08:40:39;11.30;;;5.90;;
65855;SDS011;52631;42.208;24.656;2023-06-24T08:43:05;8.77;;;5.85;;
65855;SDS011;52631;42.208;24.656;2023-06-24T08:45:31;7.03;;;5.13;;
65855;SDS011;52631;42.208;24.656;2023-06-24T08:47:57;8.43;;;5.63;;
65855;SDS011;52631;42.208;24.656;2023-06-24T08:50:23;22.75;;;6.63;;
65855;SDS011;52631;42.208;24.656;2023-06-24T08:52:52;8.70;;;5.75;;
65855;SDS011;52631;42.208;24.656;2023-06-24T08:55:19;7.57;;;5.70;;
65855;SDS011;52631;42.208;24.656;2023-06-24T08:57:47;7.55;;;5.60;;
65855;SDS011;52631;42.208;24.656;2023-06-24T09:00:12;10.30;;;5.53;;
65855;SDS011;52631;42.208;24.656;2023-06-24T09:02:38;10.88;;;5.82;;
65855;SDS011;52631;42.208;24.656;2023-06-24T09:05:07;7.47;;;5.78;;
65855;SDS011;52631;42.208;24.656;2023-06-24T09:07:33;8.00;;;5.13;;
65855;SDS011;52631;42.208;24.656;2023-06-24T09:09:58;8.82;;;5.88;;
65855;SDS011;52631;42.208;24.656;2023-06-24T09:12:25;7.22;;;5.32;;
65855;SDS011;52631;42.208;24.656;2023-06-24T09:14:51;9.18;;;6.00;;
65855;SDS011;52631;42.208;24.656;2023-06-24T09:17:17;9.18;;;5.45;;
65855;SDS011;52631;42.208;24.656;2023-06-24T09:19:43;10.23;;;5.68;;
65855;SDS011;52631;42.208;24.656;2023-06-24T09:22:09;7.97;;;5.85;;
65855;SDS011;52631;42.208;24.656;2023-06-24T09:24:44;8.70;;;5.90;;
65855;SDS011;52631;42.208;24.656;2023-06-24T09:27:13;7.68;;;5.05;;
65855;SDS011;52631;42.208;24.656;2023-06-24T09:29:41;10.43;;;5.53;;
65855;SDS011;52631;42.208;24.656;2023-06-24T09:32:07;7.10;;;5.50;;
65855;SDS011;52631;42.208;24.656;2023-06-24T09:34:33;7.93;;;5.50;;
65855;SDS011;52631;42.208;24.656;2023-06-24T09:36:59;8.20;;;5.53;;
65855;SDS011;52631;42.208;24.656;2023-06-24T09:39:25;7.25;;;5.65;;
65855;SDS011;52631;42.208;24.656;2023-06-24T09:44:26;9.15;;;6.55;;
65855;SDS011;52631;42.208;24.656;2023-06-24T09:46:52;7.88;;;6.25;;
65855;SDS011;52631;42.208;24.656;2023-06-24T09:49:18;7.07;;;5.55;;
65855;SDS011;52631;42.208;24.656;2023-06-24T09:51:47;9.90;;;6.20;;
65855;SDS011;52631;42.208;24.656;2023-06-24T09:54:15;8.40;;;6.28;;
65855;SDS011;52631;42.208;24.656;2023-06-24T09:56:50;12.52;;;6.00;;
65855;SDS011;52631;42.208;24.656;2023-06-24T09:59:17;10.20;;;6.25;;
65855;SDS011;52631;42.208;24.656;2023-06-24T10:01:49;7.72;;;6.43;;
65855;SDS011;52631;42.208;24.656;2023-06-24T10:04:18;8.63;;;6.18;;
65855;SDS011;52631;42.208;24.656;2023-06-24T10:06:44;7.60;;;6.10;;
65855;SDS011;52631;42.208;24.656;2023-06-24T10:09:09;7.22;;;6.07;;
65855;SDS011;52631;42.208;24.656;2023-06-24T10:11:38;7.43;;;6.35;;
65855;SDS011;52631;42.208;24.656;2023-06-24T10:14:03;12.10;;;6.55;;
65855;SDS011;52631;42.208;24.656;2023-06-24T10:16:29;6.95;;;6.05;;
65855;SDS011;52631;42.208;24.656;2023-06-24T10:19:01;7.05;;;6.10;;
65855;SDS011;52631;42.208;24.656;2023-06-24T10:21:44;8.63;;;6.22;;
65855;SDS011;52631;42.208;24.656;2023-06-24T10:24:10;7.32;;;5.90;;
65855;SDS011;52631;42.208;24.656;2023-06-24T10:26:35;7.55;;;6.10;;
65855;SDS011;52631;42.208;24.656;2023-06-24T10:37:09;7.95;;;5.90;;
65855;SDS011;52631;42.208;24.656;2023-06-24T10:44:55;6.97;;;6.03;;
65855;SDS011;52631;42.208;24.656;2023-06-24T10:47:22;9.15;;;6.10;;
65855;SDS011;52631;42.208;24.656;2023-06-24T10:49:48;8.65;;;6.80;;
65855;SDS011;52631;42.208;24.656;2023-06-24T10:52:14;7.68;;;6.35;;
65855;SDS011;52631;42.208;24.656;2023-06-24T10:54:40;10.35;;;6.50;;
65855;SDS011;52631;42.208;24.656;2023-06-24T10:57:06;10.05;;;6.25;;
65855;SDS011;52631;42.208;24.656;2023-06-24T10:59:39;8.77;;;6.40;;
65855;SDS011;52631;42.208;24.656;2023-06-24T11:02:08;8.27;;;6.53;;
65855;SDS011;52631;42.208;24.656;2023-06-24T11:07:11;7.40;;;6.53;;
65855;SDS011;52631;42.208;24.656;2023-06-24T11:09:38;9.73;;;6.50;;
65855;SDS011;52631;42.208;24.656;2023-06-24T11:12:05;7.57;;;6.78;;
65855;SDS011;52631;42.208;24.656;2023-06-24T11:14:32;8.25;;;5.90;;
65855;SDS011;52631;42.208;24.656;2023-06-24T11:17:00;7.88;;;6.40;;
65855;SDS011;52631;42.208;24.656;2023-06-24T11:19:26;7.43;;;6.20;;
65855;SDS011;52631;42.208;24.656;2023-06-24T11:21:52;7.45;;;6.50;;
65855;SDS011;52631;42.208;24.656;2023-06-24T11:24:17;9.13;;;6.90;;
65855;SDS011;52631;42.208;24.656;2023-06-24T11:26:43;8.35;;;6.65;;
65855;SDS011;52631;42.208;24.656;2023-06-24T11:29:11;8.20;;;6.50;;
65855;SDS011;52631;42.208;24.656;2023-06-24T11:31:37;7.57;;;6.55;;
65855;SDS011;52631;42.208;24.656;2023-06-24T11:34:03;7.85;;;6.40;;
65855;SDS011;52631;42.208;24.656;2023-06-24T11:36:29;7.75;;;6.55;;
65855;SDS011;52631;42.208;24.656;2023-06-24T11:38:54;8.35;;;6.65;;
65855;SDS011;52631;42.208;24.656;2023-06-24T11:41:20;9.68;;;6.68;;
65855;SDS011;52631;42.208;24.656;2023-06-24T11:43:46;15.02;;;7.15;;
65855;SDS011;52631;42.208;24.656;2023-06-24T11:46:21;7.60;;;6.50;;
65855;SDS011;52631;42.208;24.656;2023-06-24T11:48:50;9.27;;;6.78;;
65855;SDS011;52631;42.208;24.656;2023-06-24T11:51:16;7.30;;;6.20;;
65855;SDS011;52631;42.208;24.656;2023-06-24T11:53:42;8.45;;;6.65;;
65855;SDS011;52631;42.208;24.656;2023-06-24T11:56:08;7.50;;;6.63;;
65855;SDS011;52631;42.208;24.656;2023-06-24T11:58:34;10.60;;;7.20;;
65855;SDS011;52631;42.208;24.656;2023-06-24T12:01:03;8.77;;;6.65;;
65855;SDS011;52631;42.208;24.656;2023-06-24T12:03:29;8.82;;;6.88;;
65855;SDS011;52631;42.208;24.656;2023-06-24T12:05:57;7.72;;;6.93;;
65855;SDS011;52631;42.208;24.656;2023-06-24T12:08:23;7.63;;;6.80;;
65855;SDS011;52631;42.208;24.656;2023-06-24T12:10:48;8.27;;;6.97;;
65855;SDS011;52631;42.208;24.656;2023-06-24T12:13:14;8.80;;;6.93;;
65855;SDS011;52631;42.208;24.656;2023-06-24T12:15:40;9.48;;;7.22;;
65855;SDS011;52631;42.208;24.656;2023-06-24T12:18:05;9.50;;;6.97;;
65855;SDS011;52631;42.208;24.656;2023-06-24T12:20:31;8.77;;;7.30;;
65855;SDS011;52631;42.208;24.656;2023-06-24T12:22:57;9.45;;;7.43;;
65855;SDS011;52631;42.208;24.656;2023-06-24T12:25:23;8.85;;;7.13;;
65855;SDS011;52631;42.208;24.656;2023-06-24T12:27:49;8.27;;;7.45;;
65855;SDS011;52631;42.208;24.656;2023-06-24T12:30:15;8.30;;;7.50;;
65855;SDS011;52631;42.208;24.656;2023-06-24T12:32:41;10.77;;;7.63;;
65855;SDS011;52631;42.208;24.656;2023-06-24T12:35:07;8.80;;;7.88;;
65855;SDS011;52631;42.208;24.656;2023-06-24T12:37:34;13.00;;;7.60;;
65855;SDS011;52631;42.208;24.656;2023-06-24T12:40:00;23.10;;;8.55;;
65855;SDS011;52631;42.208;24.656;2023-06-24T12:42:26;9.15;;;7.47;;
65855;SDS011;52631;42.208;24.656;2023-06-24T12:44:52;11.10;;;7.80;;
65855;SDS011;52631;42.208;24.656;2023-06-24T12:47:17;9.88;;;7.90;;
65855;SDS011;52631;42.208;24.656;2023-06-24T12:49:43;8.82;;;7.90;;
65855;SDS011;52631;42.208;24.656;2023-06-24T12:52:09;9.10;;;7.65;;
65855;SDS011;52631;42.208;24.656;2023-06-24T12:54:34;8.95;;;7.40;;
65855;SDS011;52631;42.208;24.656;2023-06-24T12:57:03;9.18;;;8.20;;
65855;SDS011;52631;42.208;24.656;2023-06-24T12:59:29;10.02;;;8.20;;
65855;SDS011;52631;42.208;24.656;2023-06-24T13:01:55;10.20;;;7.78;;
65855;SDS011;52631;42.208;24.656;2023-06-24T13:04:20;8.25;;;7.30;;
65855;SDS011;52631;42.208;24.656;2023-06-24T13:06:47;11.10;;;7.78;;
65855;SDS011;52631;42.208;24.656;2023-06-24T13:09:14;11.10;;;7.53;;
65855;SDS011;52631;42.208;24.656;2023-06-24T13:11:39;8.02;;;7.18;;
65855;SDS011;52631;42.208;24.656;2023-06-24T13:14:05;7.88;;;7.07;;
65855;SDS011;52631;42.208;24.656;2023-06-24T13:16:31;8.68;;;7.18;;
65855;SDS011;52631;42.208;24.656;2023-06-24T13:18:56;9.80;;;7.20;;
65855;SDS011;52631;42.208;24.656;2023-06-24T13:21:22;9.27;;;7.90;;
65855;SDS011;52631;42.208;24.656;2023-06-24T13:23:48;9.07;;;7.05;;
65855;SDS011;52631;42.208;24.656;2023-06-24T13:26:13;10.23;;;7.15;;
65855;SDS011;52631;42.208;24.656;2023-06-24T13:28:39;9.63;;;7.35;;
65855;SDS011;52631;42.208;24.656;2023-06-24T13:31:05;8.65;;;7.70;;
65855;SDS011;52631;42.208;24.656;2023-06-24T13:33:30;9.20;;;7.13;;
65855;SDS011;52631;42.208;24.656;2023-06-24T13:35:56;8.80;;;7.38;;
65855;SDS011;52631;42.208;24.656;2023-06-24T13:38:21;11.45;;;7.40;;
65855;SDS011;52631;42.208;24.656;2023-06-24T13:40:47;11.07;;;7.65;;
65855;SDS011;52631;42.208;24.656;2023-06-24T13:43:13;11.02;;;7.70;;
65855;SDS011;52631;42.208;24.656;2023-06-24T13:45:38;11.45;;;7.10;;
65855;SDS011;52631;42.208;24.656;2023-06-24T13:48:04;9.52;;;7.40;;
65855;SDS011;52631;42.208;24.656;2023-06-24T13:50:29;9.80;;;7.35;;
65855;SDS011;52631;42.208;24.656;2023-06-24T13:52:55;11.48;;;7.30;;
65855;SDS011;52631;42.208;24.656;2023-06-24T13:55:24;13.20;;;6.93;;
65855;SDS011;52631;42.208;24.656;2023-06-24T13:57:49;11.25;;;7.57;;
65855;SDS011;52631;42.208;24.656;2023-06-24T14:00:15;17.63;;;7.60;;
65855;SDS011;52631;42.208;24.656;2023-06-24T14:02:41;9.93;;;7.57;;
65855;SDS011;52631;42.208;24.656;2023-06-24T14:05:06;8.32;;;7.05;;
65855;SDS011;52631;42.208;24.656;2023-06-24T14:07:33;10.00;;;7.28;;
65855;SDS011;52631;42.208;24.656;2023-06-24T14:09:59;10.35;;;7.05;;
65855;SDS011;52631;42.208;24.656;2023-06-24T14:12:24;13.18;;;7.20;;
65855;SDS011;52631;42.208;24.656;2023-06-24T14:14:50;11.75;;;7.47;;
65855;SDS011;52631;42.208;24.656;2023-06-24T14:17:16;8.80;;;7.70;;
65855;SDS011;52631;42.208;24.656;2023-06-24T14:19:41;10.27;;;7.10;;
65855;SDS011;52631;42.208;24.656;2023-06-24T14:22:07;11.65;;;7.63;;
65855;SDS011;52631;42.208;24.656;2023-06-24T14:24:33;9.80;;;7.10;;
65855;SDS011;52631;42.208;24.656;2023-06-24T14:26:58;11.52;;;7.45;;
65855;SDS011;52631;42.208;24.656;2023-06-24T14:29:24;9.63;;;7.32;;
65855;SDS011;52631;42.208;24.656;2023-06-24T14:31:50;15.25;;;7.30;;
65855;SDS011;52631;42.208;24.656;2023-06-24T14:34:16;13.10;;;7.35;;
65855;SDS011;52631;42.208;24.656;2023-06-24T14:36:42;11.75;;;7.43;;
65855;SDS011;52631;42.208;24.656;2023-06-24T14:39:07;9.25;;;6.72;;
65855;SDS011;52631;42.208;24.656;2023-06-24T14:41:32;11.70;;;7.30;;
65855;SDS011;52631;42.208;24.656;2023-06-24T14:43:58;8.75;;;6.72;;
65855;SDS011;52631;42.208;24.656;2023-06-24T14:46:23;14.57;;;7.40;;
65855;SDS011;52631;42.208;24.656;2023-06-24T14:48:49;12.30;;;7.28;;
65855;SDS011;52631;42.208;24.656;2023-06-24T14:51:14;11.07;;;6.90;;